createdAt,value
2016-10-17T00:00:21.572Z,1042.85
2016-10-17T00:01:21.564Z,1042.86
2016-10-17T00:02:21.556Z,1042.84
2016-10-17T00:03:21.843Z,1042.9
2016-10-17T00:04:21.538Z,1042.82
2016-10-17T00:05:21.529Z,1042.82
2016-10-17T00:06:21.521Z,1042.82
2016-10-17T00:07:21.599Z,1042.83
2016-10-17T00:08:21.504Z,1042.8
2016-10-17T00:09:21.495Z,1042.77
2016-10-17T00:10:21.487Z,1042.79
2016-10-17T00:11:21.479Z,1042.75
2016-10-17T00:12:22.440Z,1042.76
2016-10-17T00:13:21.463Z,1042.75
2016-10-17T00:14:22.188Z,1042.73
2016-10-17T00:15:21.445Z,1042.71
2016-10-17T00:16:21.438Z,1042.71
2016-10-17T00:17:21.430Z,1042.73
2016-10-17T00:18:21.420Z,1042.74
2016-10-17T00:19:21.413Z,1042.74
2016-10-17T00:20:21.404Z,1042.69
2016-10-17T00:21:21.396Z,1042.67
2016-10-17T00:22:21.388Z,1042.68
2016-10-17T00:23:21.377Z,1042.72
2016-10-17T00:24:21.369Z,1042.7
2016-10-17T00:25:21.360Z,1042.7
2016-10-17T00:26:21.352Z,1042.65
2016-10-17T00:27:21.345Z,1042.65
2016-10-17T00:28:21.337Z,1042.66
2016-10-17T00:29:21.327Z,1042.65
2016-10-17T00:30:21.319Z,1042.65
2016-10-17T00:31:21.312Z,1042.65
2016-10-17T00:32:21.302Z,1042.69
2016-10-17T00:33:21.293Z,1042.68
2016-10-17T00:34:21.285Z,1042.68
2016-10-17T00:35:21.279Z,1042.67
2016-10-17T00:36:21.269Z,1042.68
2016-10-17T00:37:21.263Z,1042.66
2016-10-17T00:38:21.252Z,1042.67
2016-10-17T00:39:21.243Z,1042.7
2016-10-17T00:40:21.235Z,1042.68
2016-10-17T00:41:21.229Z,1042.73
2016-10-17T00:42:21.220Z,1042.71
2016-10-17T00:43:21.212Z,1042.73
2016-10-17T00:44:21.204Z,1042.75
2016-10-17T00:45:21.196Z,1042.75
2016-10-17T00:46:21.188Z,1042.74
2016-10-17T00:47:21.178Z,1042.77
2016-10-17T00:48:21.169Z,1042.73
2016-10-17T00:49:21.167Z,1042.74
2016-10-17T00:50:21.152Z,1042.73
2016-10-17T00:51:21.149Z,1042.71
2016-10-17T00:52:21.136Z,1042.76
2016-10-17T00:53:21.129Z,1042.74
2016-10-17T00:54:21.120Z,1042.83
2016-10-17T00:55:21.112Z,1042.79
2016-10-17T00:56:21.103Z,1042.79
2016-10-17T00:57:21.095Z,1042.84
2016-10-17T00:58:21.086Z,1042.86
2016-10-17T00:59:21.077Z,1042.89
2016-10-17T01:00:21.068Z,1042.86
2016-10-17T01:01:21.059Z,1042.83
2016-10-17T01:02:21.053Z,1042.87
2016-10-17T01:03:21.043Z,1042.83
2016-10-17T01:04:21.036Z,1042.84
2016-10-17T01:05:21.027Z,1042.84
2016-10-17T01:06:21.019Z,1042.84
2016-10-17T01:07:21.008Z,1042.87
2016-10-17T01:08:21.000Z,1042.88
2016-10-17T01:09:20.992Z,1042.86
2016-10-17T01:10:20.983Z,1042.91
2016-10-17T01:11:20.976Z,1042.89
2016-10-17T01:12:20.968Z,1042.85
2016-10-17T01:13:20.960Z,1042.84
2016-10-17T01:14:20.950Z,1042.83
2016-10-17T01:15:20.942Z,1042.83
2016-10-17T01:16:20.932Z,1042.86
2016-10-17T01:17:20.926Z,1042.85
2016-10-17T01:18:20.914Z,1042.81
2016-10-17T01:19:20.906Z,1042.87
2016-10-17T01:20:20.898Z,1042.88
2016-10-17T01:21:20.891Z,1042.88
2016-10-17T01:22:20.880Z,1042.91
2016-10-17T01:23:20.872Z,1042.89
2016-10-17T01:24:20.864Z,1042.87
2016-10-17T01:25:20.858Z,1042.85
2016-10-17T01:26:20.848Z,1042.8
2016-10-17T01:27:20.839Z,1042.83
2016-10-17T01:28:20.832Z,1042.87
2016-10-17T01:29:20.822Z,1042.89
2016-10-17T01:30:20.813Z,1042.92
2016-10-17T01:31:20.806Z,1042.94
2016-10-17T01:32:21.116Z,1042.93
2016-10-17T01:33:20.786Z,1042.9
2016-10-17T01:34:20.780Z,1042.89
2016-10-17T01:35:20.771Z,1042.92
2016-10-17T01:36:20.763Z,1042.87
2016-10-17T01:37:20.753Z,1042.86
2016-10-17T01:38:20.743Z,1042.89
2016-10-17T01:39:20.735Z,1042.9
2016-10-17T01:40:20.727Z,1042.94
2016-10-17T01:41:20.719Z,1042.98
2016-10-17T01:42:20.708Z,1042.95
2016-10-17T01:43:20.700Z,1042.98
2016-10-17T01:44:20.692Z,1043.03
2016-10-17T01:45:20.684Z,1043.03
2016-10-17T01:46:20.675Z,1043.04
2016-10-17T01:47:20.665Z,1043.06
2016-10-17T01:48:20.658Z,1042.99
2016-10-17T01:49:20.647Z,1043.01
2016-10-17T01:50:20.638Z,1042.95
2016-10-17T01:51:20.631Z,1042.97
2016-10-17T01:52:20.622Z,1042.97
2016-10-17T01:53:20.612Z,1042.93
2016-10-17T01:54:20.605Z,1042.94
2016-10-17T01:55:20.594Z,1042.97
2016-10-17T01:56:20.587Z,1042.96
2016-10-17T01:57:20.576Z,1042.87
2016-10-17T01:58:20.568Z,1042.83
2016-10-17T01:59:20.559Z,1042.83
2016-10-17T02:00:20.552Z,1042.86
2016-10-17T02:01:20.542Z,1042.87
2016-10-17T02:02:20.533Z,1042.91
2016-10-17T02:03:20.526Z,1042.9
2016-10-17T02:04:20.516Z,1042.96
2016-10-17T02:05:20.509Z,1042.92
2016-10-17T02:06:20.498Z,1042.9
2016-10-17T02:07:20.491Z,1042.91
2016-10-17T02:08:20.481Z,1042.88
2016-10-17T02:09:20.475Z,1042.86
2016-10-17T02:10:20.465Z,1042.88
2016-10-17T02:11:20.457Z,1042.88
2016-10-17T02:12:20.446Z,1042.87
2016-10-17T02:13:20.439Z,1042.91
2016-10-17T02:14:20.430Z,1042.92
2016-10-17T02:15:20.422Z,1042.91
2016-10-17T02:16:20.411Z,1042.91
2016-10-17T02:17:20.404Z,1042.91
2016-10-17T02:18:20.396Z,1042.89
2016-10-17T02:19:20.387Z,1042.9
2016-10-17T02:20:20.377Z,1042.9
2016-10-17T02:21:20.368Z,1042.85
2016-10-17T02:22:20.360Z,1042.89
2016-10-17T02:23:20.354Z,1042.88
2016-10-17T02:24:20.342Z,1042.82
2016-10-17T02:25:20.336Z,1042.88
2016-10-17T02:26:20.328Z,1042.93
2016-10-17T02:27:20.318Z,1042.88
2016-10-17T02:28:20.307Z,1042.93
2016-10-17T02:29:20.299Z,1042.92
2016-10-17T02:30:20.293Z,1042.92
2016-10-17T02:31:20.281Z,1042.86
2016-10-17T02:32:20.275Z,1042.84
2016-10-17T02:33:20.266Z,1042.82
2016-10-17T02:34:20.258Z,1042.84
2016-10-17T02:35:20.249Z,1042.75
2016-10-17T02:36:20.239Z,1042.79
2016-10-17T02:37:20.236Z,1042.75
2016-10-17T02:38:20.222Z,1042.76
2016-10-17T02:39:20.418Z,1042.78
2016-10-17T02:40:20.831Z,1042.77
2016-10-17T02:41:20.196Z,1042.76
2016-10-17T02:42:20.187Z,1042.8
2016-10-17T02:43:20.178Z,1042.8
2016-10-17T02:44:20.258Z,1042.84
2016-10-17T02:45:20.164Z,1042.88
2016-10-17T02:46:20.152Z,1042.92
2016-10-17T02:47:20.146Z,1042.89
2016-10-17T02:48:20.138Z,1042.91
2016-10-17T02:49:21.044Z,1042.92
2016-10-17T02:50:20.118Z,1042.93
2016-10-17T02:51:20.111Z,1042.92
2016-10-17T02:52:20.101Z,1042.9
2016-10-17T02:53:20.095Z,1042.98
2016-10-17T02:54:20.085Z,1042.91
2016-10-17T02:55:20.077Z,1042.93
2016-10-17T02:56:20.066Z,1042.92
2016-10-17T02:57:20.060Z,1042.88
2016-10-17T02:58:20.050Z,1042.88
2016-10-17T02:59:20.042Z,1042.96
2016-10-17T03:00:20.034Z,1042.91
2016-10-17T03:01:20.024Z,1042.87
2016-10-17T03:02:20.015Z,1042.88
2016-10-17T03:03:20.007Z,1042.93
2016-10-17T03:04:19.996Z,1042.93
2016-10-17T03:05:19.990Z,1042.94
2016-10-17T03:06:19.979Z,1042.93
2016-10-17T03:07:19.971Z,1042.93
2016-10-17T03:08:19.963Z,1042.91
2016-10-17T03:09:19.953Z,1042.95
2016-10-17T03:10:19.944Z,1042.93
2016-10-17T03:11:19.936Z,1042.96
2016-10-17T03:12:19.928Z,1042.98
2016-10-17T03:13:19.918Z,1042.96
2016-10-17T03:14:19.911Z,1042.96
2016-10-17T03:15:19.902Z,1043.04
2016-10-17T03:16:19.893Z,1042.96
2016-10-17T03:17:19.883Z,1043.01
2016-10-17T03:18:19.874Z,1043.02
2016-10-17T03:19:19.867Z,1043.03
2016-10-17T03:20:19.856Z,1043.05
2016-10-17T03:21:19.848Z,1042.99
2016-10-17T03:22:19.847Z,1043
2016-10-17T03:23:19.833Z,1043.01
2016-10-17T03:24:19.824Z,1042.99
2016-10-17T03:25:19.813Z,1042.99
2016-10-17T03:26:19.806Z,1042.96
2016-10-17T03:27:19.795Z,1043.01
2016-10-17T03:28:19.787Z,1043.02
2016-10-17T03:29:19.780Z,1043.01
2016-10-17T03:30:19.771Z,1043
2016-10-17T03:31:19.762Z,1043.02
2016-10-17T03:32:19.752Z,1043.01
2016-10-17T03:33:19.745Z,1043.01
2016-10-17T03:34:19.734Z,1043.02
2016-10-17T03:35:19.725Z,1043.03
2016-10-17T03:36:19.718Z,1043.08
2016-10-17T03:37:19.708Z,1043.07
2016-10-17T03:38:19.700Z,1043.02
2016-10-17T03:39:19.689Z,1043.05
2016-10-17T03:40:19.683Z,1043
2016-10-17T03:41:19.671Z,1043.02
2016-10-17T03:42:19.665Z,1043.04
2016-10-17T03:43:19.654Z,1043.03
2016-10-17T03:44:19.648Z,1043.07
2016-10-17T03:45:19.636Z,1043.05
2016-10-17T03:46:19.629Z,1043.06
2016-10-17T03:47:19.619Z,1043.03
2016-10-17T03:48:19.611Z,1043.03
2016-10-17T03:49:19.602Z,1043.05
2016-10-17T03:50:19.594Z,1043
2016-10-17T03:51:19.585Z,1042.99
2016-10-17T03:52:19.575Z,1043
2016-10-17T03:53:19.565Z,1042.95
2016-10-17T03:54:19.558Z,1043
2016-10-17T03:55:19.548Z,1043.03
2016-10-17T03:56:19.539Z,1043
2016-10-17T03:57:19.531Z,1043.02
2016-10-17T03:58:19.522Z,1042.98
2016-10-17T03:59:19.512Z,1042.96
2016-10-17T04:00:19.503Z,1042.95
2016-10-17T04:01:19.495Z,1042.98
2016-10-17T04:02:19.487Z,1042.95
2016-10-17T04:03:19.478Z,1042.96
2016-10-17T04:04:19.468Z,1043
2016-10-17T04:05:19.462Z,1043.03
2016-10-17T04:06:19.452Z,1043.02
2016-10-17T04:07:19.692Z,1043.02
2016-10-17T04:08:19.434Z,1042.99
2016-10-17T04:09:19.423Z,1042.95
2016-10-17T04:10:19.413Z,1042.99
2016-10-17T04:11:19.639Z,1043.02
2016-10-17T04:12:19.398Z,1043.01
2016-10-17T04:13:19.388Z,1043.02
2016-10-17T04:14:19.377Z,1043.05
2016-10-17T04:15:19.369Z,1043.03
2016-10-17T04:16:19.362Z,1043.04
2016-10-17T04:17:19.350Z,1043
2016-10-17T04:18:19.344Z,1042.99
2016-10-17T04:19:19.333Z,1042.96
2016-10-17T04:20:19.326Z,1042.97
2016-10-17T04:21:19.316Z,1042.96
2016-10-17T04:22:19.306Z,1042.93
2016-10-17T04:23:19.299Z,1042.95
2016-10-17T04:24:19.288Z,1042.98
2016-10-17T04:25:19.280Z,1042.94
2016-10-17T04:26:19.271Z,1042.96
2016-10-17T04:27:19.260Z,1042.99
2016-10-17T04:28:19.253Z,1042.98
2016-10-17T04:29:19.244Z,1042.92
2016-10-17T04:30:19.233Z,1042.91
2016-10-17T04:31:19.225Z,1042.91
2016-10-17T04:32:19.215Z,1042.91
2016-10-17T04:33:19.208Z,1042.9
2016-10-17T04:34:19.197Z,1042.85
2016-10-17T04:35:19.188Z,1042.94
2016-10-17T04:36:19.178Z,1042.89
2016-10-17T04:37:19.171Z,1042.87
2016-10-17T04:38:19.163Z,1042.94
2016-10-17T04:39:19.151Z,1042.95
2016-10-17T04:40:19.143Z,1042.97
2016-10-17T04:41:19.135Z,1043.01
2016-10-17T04:42:19.124Z,1043.01
2016-10-17T04:43:19.114Z,1043.01
2016-10-17T04:44:19.107Z,1043.09
2016-10-17T04:45:19.099Z,1043.05
2016-10-17T04:46:19.087Z,1043.04
2016-10-17T04:47:19.078Z,1043.04
2016-10-17T04:48:19.071Z,1043.05
2016-10-17T04:49:19.060Z,1042.99
2016-10-17T04:50:19.050Z,1043.07
2016-10-17T04:51:19.043Z,1043.05
2016-10-17T04:52:19.032Z,1043.08
2016-10-17T04:53:19.023Z,1042.99
2016-10-17T04:54:19.015Z,1043.05
2016-10-17T04:55:19.006Z,1043.02
2016-10-17T04:56:18.995Z,1043.03
2016-10-17T04:57:18.987Z,1043.08
2016-10-17T04:58:18.976Z,1043.07
2016-10-17T04:59:18.967Z,1043.06
2016-10-17T05:00:18.964Z,1043.1
2016-10-17T05:01:18.950Z,1043.02
2016-10-17T05:02:18.942Z,1043
2016-10-17T05:03:18.930Z,1043
2016-10-17T05:04:18.923Z,1042.99
2016-10-17T05:05:18.913Z,1042.96
2016-10-17T05:06:18.902Z,1042.93
2016-10-17T05:07:18.893Z,1043.01
2016-10-17T05:08:18.884Z,1043
2016-10-17T05:09:18.877Z,1042.99
2016-10-17T05:10:18.868Z,1043.04
2016-10-17T05:11:18.858Z,1043.04
2016-10-17T05:12:18.847Z,1043
2016-10-17T05:13:18.840Z,1043.03
2016-10-17T05:14:18.829Z,1042.98
2016-10-17T05:15:18.820Z,1043.02
2016-10-17T05:16:18.812Z,1042.98
2016-10-17T05:17:18.801Z,1043.06
2016-10-17T05:18:18.792Z,1043.01
2016-10-17T05:19:19.736Z,1043.03
2016-10-17T05:20:19.351Z,1043
2016-10-17T05:21:18.766Z,1042.96
2016-10-17T05:22:18.757Z,1042.99
2016-10-17T05:23:18.746Z,1042.99
2016-10-17T05:24:18.736Z,1042.99
2016-10-17T05:25:18.730Z,1042.98
2016-10-17T05:26:18.719Z,1042.94
2016-10-17T05:27:18.821Z,1042.98
2016-10-17T05:28:18.701Z,1042.96
2016-10-17T05:29:18.690Z,1042.96
2016-10-17T05:30:18.681Z,1042.94
2016-10-17T05:31:18.672Z,1042.92
2016-10-17T05:32:18.663Z,1042.92
2016-10-17T05:33:18.654Z,1042.92
2016-10-17T05:34:18.646Z,1042.93
2016-10-17T05:35:18.637Z,1042.89
2016-10-17T05:36:18.626Z,1042.95
2016-10-17T05:37:18.619Z,1042.95
2016-10-17T05:38:18.609Z,1042.94
2016-10-17T05:39:18.598Z,1042.91
2016-10-17T05:40:18.590Z,1042.95
2016-10-17T05:41:18.579Z,1042.95
2016-10-17T05:42:18.572Z,1042.88
2016-10-17T05:43:18.562Z,1042.98
2016-10-17T05:44:18.554Z,1042.99
2016-10-17T05:45:18.543Z,1042.94
2016-10-17T05:46:18.533Z,1042.93
2016-10-17T05:47:18.525Z,1042.92
2016-10-17T05:48:18.514Z,1042.96
2016-10-17T05:49:18.506Z,1042.93
2016-10-17T05:50:18.497Z,1042.91
2016-10-17T05:51:18.488Z,1042.96
2016-10-17T05:52:18.475Z,1042.88
2016-10-17T05:53:19.317Z,1042.92
2016-10-17T05:54:18.457Z,1042.95
2016-10-17T05:55:18.448Z,1042.92
2016-10-17T05:56:18.437Z,1042.93
2016-10-17T05:57:18.430Z,1042.94
2016-10-17T05:58:18.421Z,1042.91
2016-10-17T05:59:18.410Z,1042.91
2016-10-17T06:00:18.401Z,1042.87
2016-10-17T06:01:18.390Z,1042.85
2016-10-17T06:02:18.381Z,1042.84
2016-10-17T06:03:18.371Z,1042.84
2016-10-17T06:04:18.364Z,1042.84
2016-10-17T06:05:18.355Z,1042.87
2016-10-17T06:06:18.346Z,1042.82
2016-10-17T06:07:18.336Z,1042.85
2016-10-17T06:08:18.325Z,1042.81
2016-10-17T06:09:18.318Z,1042.83
2016-10-17T06:10:18.309Z,1042.85
2016-10-17T06:11:18.296Z,1042.81
2016-10-17T06:12:18.289Z,1042.84
2016-10-17T06:13:18.279Z,1042.82
2016-10-17T06:14:18.269Z,1042.8
2016-10-17T06:15:18.259Z,1042.81
2016-10-17T06:16:18.250Z,1042.77
2016-10-17T06:17:18.243Z,1042.78
2016-10-17T06:18:18.231Z,1042.73
2016-10-17T06:19:18.224Z,1042.87
2016-10-17T06:20:18.215Z,1042.87
2016-10-17T06:21:18.204Z,1042.86
2016-10-17T06:22:18.196Z,1042.85
2016-10-17T06:23:18.187Z,1042.85
2016-10-17T06:24:18.176Z,1042.84
2016-10-17T06:25:18.166Z,1042.81
2016-10-17T06:26:18.158Z,1042.75
2016-10-17T06:27:18.149Z,1042.71
2016-10-17T06:28:18.139Z,1042.77
2016-10-17T06:29:18.131Z,1042.76
2016-10-17T06:30:18.121Z,1042.75
2016-10-17T06:31:18.111Z,1042.79
2016-10-17T06:32:18.104Z,1042.8
2016-10-17T06:33:18.094Z,1042.75
2016-10-17T06:34:18.083Z,1042.75
2016-10-17T06:35:18.074Z,1042.75
2016-10-17T06:36:18.120Z,1042.76
2016-10-17T06:37:18.059Z,1042.76
2016-10-17T06:38:18.049Z,1042.74
2016-10-17T06:39:18.040Z,1042.73
2016-10-17T06:40:18.435Z,1042.68
2016-10-17T06:41:18.019Z,1042.68
2016-10-17T06:42:18.012Z,1042.68
2016-10-17T06:43:18.001Z,1042.67
2016-10-17T06:44:18.317Z,1042.7
2016-10-17T06:45:17.985Z,1042.66
2016-10-17T06:46:17.974Z,1042.68
2016-10-17T06:47:17.966Z,1042.75
2016-10-17T06:48:18.535Z,1042.75
2016-10-17T06:49:18.036Z,1042.8
2016-10-17T06:50:17.939Z,1042.77
2016-10-17T06:51:17.930Z,1042.82
2016-10-17T06:52:17.921Z,1042.83
2016-10-17T06:53:17.910Z,1042.8
2016-10-17T06:54:17.904Z,1042.87
2016-10-17T06:55:17.893Z,1042.8
2016-10-17T06:56:17.885Z,1042.79
2016-10-17T06:57:17.877Z,1042.73
2016-10-17T06:58:17.867Z,1042.76
2016-10-17T06:59:17.858Z,1042.72
2016-10-17T07:00:17.848Z,1042.71
2016-10-17T07:01:17.839Z,1042.74
2016-10-17T07:02:17.831Z,1042.73
2016-10-17T07:03:17.820Z,1042.72
2016-10-17T07:04:17.811Z,1042.74
2016-10-17T07:05:17.803Z,1042.74
2016-10-17T07:06:17.798Z,1042.73
2016-10-17T07:07:17.788Z,1042.67
2016-10-17T07:08:17.777Z,1042.69
2016-10-17T07:09:17.769Z,1042.64
2016-10-17T07:10:17.761Z,1042.66
2016-10-17T07:11:17.752Z,1042.61
2016-10-17T07:12:17.741Z,1042.56
2016-10-17T07:13:17.733Z,1042.57
2016-10-17T07:14:17.725Z,1042.55
2016-10-17T07:15:17.716Z,1042.51
2016-10-17T07:16:17.707Z,1042.46
2016-10-17T07:17:17.697Z,1042.46
2016-10-17T07:18:17.690Z,1042.45
2016-10-17T07:19:17.680Z,1042.42
2016-10-17T07:20:17.670Z,1042.33
2016-10-17T07:21:17.664Z,1042.29
2016-10-17T07:22:17.656Z,1042.26
2016-10-17T07:23:17.647Z,1042.22
2016-10-17T07:24:17.637Z,1042.19
2016-10-17T07:25:17.629Z,1042.08
2016-10-17T07:26:17.619Z,1042.1
2016-10-17T07:27:17.609Z,1042.1
2016-10-17T07:28:17.603Z,1042.15
2016-10-17T07:29:17.593Z,1042.16
2016-10-17T07:30:17.584Z,1042.16
2016-10-17T07:31:17.578Z,1042.12
2016-10-17T07:32:17.567Z,1042.16
2016-10-17T07:33:17.562Z,1042.13
2016-10-17T07:34:17.553Z,1042.08
2016-10-17T07:35:17.544Z,1042.1
2016-10-17T07:36:17.534Z,1042.04
2016-10-17T07:37:17.527Z,1042.05
2016-10-17T07:38:17.516Z,1042.07
2016-10-17T07:39:17.508Z,1042.14
2016-10-17T07:40:17.503Z,1042.11
2016-10-17T07:41:17.496Z,1042.1
2016-10-17T07:42:17.483Z,1042.06
2016-10-17T07:43:17.476Z,1042.09
2016-10-17T07:44:17.468Z,1042.07
2016-10-17T07:45:17.461Z,1042.13
2016-10-17T07:46:17.450Z,1042.11
2016-10-17T07:47:17.443Z,1042.06
2016-10-17T07:48:17.435Z,1042.05
2016-10-17T07:49:17.427Z,1042.11
2016-10-17T07:50:17.418Z,1042
2016-10-17T07:51:17.411Z,1042.1
2016-10-17T07:52:17.402Z,1042.15
2016-10-17T07:53:17.392Z,1042.2
2016-10-17T07:54:17.385Z,1042.17
2016-10-17T07:55:17.377Z,1042.24
2016-10-17T07:56:17.370Z,1042.25
2016-10-17T07:57:17.360Z,1042.19
2016-10-17T07:58:17.353Z,1042.2
2016-10-17T07:59:17.342Z,1042.18
2016-10-17T08:00:17.334Z,1042.2
2016-10-17T08:01:17.798Z,1042.23
2016-10-17T08:02:17.319Z,1042.27
2016-10-17T08:03:18.519Z,1042.29
2016-10-17T08:04:17.303Z,1042.29
2016-10-17T08:05:17.293Z,1042.33
2016-10-17T08:06:17.290Z,1042.3
2016-10-17T08:07:17.279Z,1042.33
2016-10-17T08:08:17.270Z,1042.32
2016-10-17T08:09:17.261Z,1042.28
2016-10-17T08:10:17.253Z,1042.26
2016-10-17T08:11:17.244Z,1042.13
2016-10-17T08:12:17.234Z,1042.25
2016-10-17T08:13:17.227Z,1042.26
2016-10-17T08:14:17.218Z,1042.27
2016-10-17T08:15:17.211Z,1042.31
2016-10-17T08:16:17.203Z,1042.26
2016-10-17T08:17:17.193Z,1042.23
2016-10-17T08:18:17.186Z,1042.22
2016-10-17T08:19:17.177Z,1042.19
2016-10-17T08:20:17.169Z,1042.16
2016-10-17T08:21:17.161Z,1042.14
2016-10-17T08:22:17.151Z,1042.11
2016-10-17T08:23:17.144Z,1042.07
2016-10-17T08:24:17.135Z,1042.04
2016-10-17T08:25:17.126Z,1042.09
2016-10-17T08:26:17.117Z,1042.11
2016-10-17T08:27:17.109Z,1042.07
2016-10-17T08:28:17.102Z,1042.03
2016-10-17T08:29:17.096Z,1042
2016-10-17T08:30:17.084Z,1042.01
2016-10-17T08:31:17.078Z,1041.96
2016-10-17T08:32:17.068Z,1041.98
2016-10-17T08:33:17.062Z,1041.87
2016-10-17T08:34:17.051Z,1041.89
2016-10-17T08:35:17.046Z,1041.89
2016-10-17T08:36:17.035Z,1041.89
2016-10-17T08:37:17.027Z,1041.84
2016-10-17T08:38:17.020Z,1041.81
2016-10-17T08:39:17.013Z,1041.79
2016-10-17T08:40:17.005Z,1041.81
2016-10-17T08:41:16.997Z,1041.8
2016-10-17T08:42:16.989Z,1041.74
2016-10-17T08:43:16.981Z,1041.72
2016-10-17T08:44:16.970Z,1041.69
2016-10-17T08:45:16.965Z,1041.72
2016-10-17T08:46:16.957Z,1041.74
2016-10-17T08:47:16.947Z,1041.65
2016-10-17T08:48:16.938Z,1041.71
2016-10-17T08:49:16.932Z,1041.66
2016-10-17T08:50:16.924Z,1041.69
2016-10-17T08:51:16.916Z,1041.66
2016-10-17T08:52:16.908Z,1041.63
2016-10-17T08:53:16.902Z,1041.59
2016-10-17T08:54:16.893Z,1041.49
2016-10-17T08:55:16.884Z,1041.55
2016-10-17T08:56:16.875Z,1041.39
2016-10-17T08:57:16.866Z,1041.42
2016-10-17T08:58:16.861Z,1041.42
2016-10-17T08:59:16.851Z,1041.4
2016-10-17T09:00:16.842Z,1041.37
2016-10-17T09:01:16.835Z,1041.39
2016-10-17T09:02:16.828Z,1041.45
2016-10-17T09:03:16.820Z,1041.41
2016-10-17T09:04:16.811Z,1041.43
2016-10-17T09:05:16.803Z,1041.41
2016-10-17T09:06:16.795Z,1041.37
2016-10-17T09:07:16.789Z,1041.41
2016-10-17T09:08:16.782Z,1041.39
2016-10-17T09:09:16.772Z,1041.4
2016-10-17T09:10:17.850Z,1041.34
2016-10-17T09:11:16.758Z,1041.39
2016-10-17T09:12:16.751Z,1041.38
2016-10-17T09:13:16.742Z,1041.36
2016-10-17T09:14:17.270Z,1041.35
2016-10-17T09:15:16.728Z,1041.3
2016-10-17T09:16:16.720Z,1041.38
2016-10-17T09:17:16.712Z,1041.34
2016-10-17T09:18:16.704Z,1041.35
2016-10-17T09:19:16.697Z,1041.37
2016-10-17T09:20:17.640Z,1041.29
2016-10-17T09:21:17.056Z,1041.26
2016-10-17T09:22:16.672Z,1041.21
2016-10-17T09:23:16.668Z,1041.14
2016-10-17T09:24:16.657Z,1041.12
2016-10-17T09:25:16.651Z,1041.14
2016-10-17T09:26:16.644Z,1041.06
2016-10-17T09:27:16.636Z,1041.02
2016-10-17T09:28:16.628Z,1041.02
2016-10-17T09:29:16.619Z,1040.88
2016-10-17T09:30:16.614Z,1040.91
2016-10-17T09:31:16.855Z,1040.91
2016-10-17T09:32:16.598Z,1040.96
2016-10-17T09:33:16.592Z,1040.94
2016-10-17T09:34:16.583Z,1040.93
2016-10-17T09:35:16.573Z,1040.99
2016-10-17T09:36:16.568Z,1041
2016-10-17T09:37:16.561Z,1040.95
2016-10-17T09:38:16.553Z,1040.85
2016-10-17T09:39:16.546Z,1040.85
2016-10-17T09:40:16.538Z,1040.86
2016-10-17T09:41:16.532Z,1040.87
2016-10-17T09:42:16.525Z,1040.89
2016-10-17T09:43:16.515Z,1040.85
2016-10-17T09:44:16.510Z,1040.8
2016-10-17T09:45:16.500Z,1040.76
2016-10-17T09:46:16.492Z,1040.67
2016-10-17T09:47:16.487Z,1040.73
2016-10-17T09:48:16.478Z,1040.61
2016-10-17T09:49:16.473Z,1040.64
2016-10-17T09:50:16.465Z,1040.59
2016-10-17T09:51:16.459Z,1040.58
2016-10-17T09:52:16.451Z,1040.55
2016-10-17T09:53:16.444Z,1040.45
2016-10-17T09:54:16.435Z,1040.45
2016-10-17T09:55:16.427Z,1040.44
2016-10-17T09:56:16.421Z,1040.46
2016-10-17T09:57:16.412Z,1040.45
2016-10-17T09:58:16.408Z,1040.44
2016-10-17T09:59:16.400Z,1040.45
2016-10-17T10:00:16.394Z,1040.57
2016-10-17T10:01:16.385Z,1040.58
2016-10-17T10:02:16.379Z,1040.62
2016-10-17T10:03:16.370Z,1040.6
2016-10-17T10:04:16.365Z,1040.6
2016-10-17T10:05:16.358Z,1040.6
2016-10-17T10:06:16.349Z,1040.56
2016-10-17T10:07:16.344Z,1040.6
2016-10-17T10:08:16.334Z,1040.57
2016-10-17T10:09:16.328Z,1040.57
2016-10-17T10:10:16.321Z,1040.57
2016-10-17T10:11:16.316Z,1040.47
2016-10-17T10:12:16.307Z,1040.38
2016-10-17T10:13:16.302Z,1040.31
2016-10-17T10:14:16.295Z,1040.28
2016-10-17T10:15:16.288Z,1040.27
2016-10-17T10:16:16.282Z,1040.29
2016-10-17T10:17:16.275Z,1040.37
2016-10-17T10:18:16.268Z,1040.32
2016-10-17T10:19:16.261Z,1040.34
2016-10-17T10:20:16.254Z,1040.36
2016-10-17T10:21:16.245Z,1040.45
2016-10-17T10:22:16.239Z,1040.46
2016-10-17T10:23:16.231Z,1040.46
2016-10-17T10:24:16.225Z,1040.47
2016-10-17T10:25:16.220Z,1040.55
2016-10-17T10:26:16.212Z,1040.52
2016-10-17T10:27:16.205Z,1040.54
2016-10-17T10:28:16.197Z,1040.52
2016-10-17T10:30:16.184Z,1040.47
2016-10-17T10:31:16.177Z,1040.49
2016-10-17T10:32:16.169Z,1040.58
2016-10-17T10:33:16.164Z,1040.64
2016-10-17T10:34:16.157Z,1040.72
2016-10-17T10:35:16.150Z,1040.7
2016-10-17T10:36:16.143Z,1040.68
2016-10-17T10:37:16.134Z,1040.61
2016-10-17T10:38:16.128Z,1040.58
2016-10-17T10:39:16.191Z,1040.54
2016-10-17T10:40:16.113Z,1040.57
2016-10-17T10:41:16.107Z,1040.52
2016-10-17T10:42:16.104Z,1040.5
2016-10-17T10:43:16.091Z,1040.49
2016-10-17T10:44:16.084Z,1040.46
2016-10-17T10:45:16.078Z,1040.47
2016-10-17T10:46:16.070Z,1040.39
2016-10-17T10:47:16.065Z,1040.34
2016-10-17T10:48:16.057Z,1040.38
2016-10-17T10:49:16.048Z,1040.33
2016-10-17T10:50:16.043Z,1040.42
2016-10-17T10:51:16.035Z,1040.38
2016-10-17T10:52:16.026Z,1040.45
2016-10-17T10:53:16.021Z,1040.45
2016-10-17T10:54:16.013Z,1040.5
2016-10-17T10:55:16.005Z,1040.5
2016-10-17T10:56:15.999Z,1040.47
2016-10-17T10:57:15.991Z,1040.47
2016-10-17T10:58:15.986Z,1040.46
2016-10-17T10:59:15.978Z,1040.43
2016-10-17T11:00:15.971Z,1040.4
2016-10-17T11:01:15.962Z,1040.33
2016-10-17T11:02:15.955Z,1040.27
2016-10-17T11:03:15.947Z,1040.21
2016-10-17T11:04:15.942Z,1040.15
2016-10-17T11:05:15.935Z,1040.09
2016-10-17T11:06:15.926Z,1040.13
2016-10-17T11:07:15.920Z,1040.1
2016-10-17T11:08:15.913Z,1040.03
2016-10-17T11:09:15.905Z,1039.99
2016-10-17T11:10:15.897Z,1040.1
2016-10-17T11:11:15.890Z,1040.15
2016-10-17T11:12:15.883Z,1040.2
2016-10-17T11:13:15.876Z,1040.26
2016-10-17T11:14:15.870Z,1040.3
2016-10-17T11:15:15.862Z,1040.28
2016-10-17T11:16:15.857Z,1040.3
2016-10-17T11:17:15.848Z,1040.37
2016-10-17T11:18:15.841Z,1040.38
2016-10-17T11:19:15.836Z,1040.37
2016-10-17T11:20:15.829Z,1040.36
2016-10-17T11:21:15.821Z,1040.39
2016-10-17T11:22:15.812Z,1040.32
2016-10-17T11:23:15.806Z,1040.34
2016-10-17T11:24:15.798Z,1040.29
2016-10-17T11:25:15.792Z,1040.29
2016-10-17T11:26:15.783Z,1040.33
2016-10-17T11:27:15.777Z,1040.21
2016-10-17T11:28:15.772Z,1040.15
2016-10-17T11:29:15.764Z,1040.08
2016-10-17T11:30:15.755Z,1040.05
2016-10-17T11:31:15.750Z,1040
2016-10-17T11:32:15.742Z,1040
2016-10-17T11:33:15.735Z,1039.98
2016-10-17T11:34:15.729Z,1039.98
2016-10-17T11:35:15.722Z,1039.92
2016-10-17T11:36:15.714Z,1040.02
2016-10-17T11:37:15.706Z,1039.96
2016-10-17T11:38:15.698Z,1039.98
2016-10-17T11:39:15.693Z,1039.98
2016-10-17T11:40:15.684Z,1039.96
2016-10-17T11:41:15.677Z,1039.89
2016-10-17T11:42:15.671Z,1039.87
2016-10-17T11:43:15.667Z,1039.78
2016-10-17T11:44:15.658Z,1039.78
2016-10-17T11:45:15.651Z,1039.77
2016-10-17T11:46:15.645Z,1039.75
2016-10-17T11:47:15.779Z,1039.77
2016-10-17T11:48:16.441Z,1039.77
2016-10-17T11:49:15.623Z,1039.78
2016-10-17T11:50:15.615Z,1039.8
2016-10-17T11:51:15.611Z,1039.79
2016-10-17T11:52:15.603Z,1039.78
2016-10-17T11:53:15.596Z,1039.72
2016-10-17T11:54:15.588Z,1039.71
2016-10-17T11:55:15.583Z,1039.65
2016-10-17T11:56:15.577Z,1039.71
2016-10-17T11:57:15.568Z,1039.72
2016-10-17T11:58:15.562Z,1039.75
2016-10-17T11:59:15.554Z,1039.81
2016-10-17T12:00:15.550Z,1039.84
2016-10-17T12:01:15.541Z,1039.81
2016-10-17T12:02:15.536Z,1039.85
2016-10-17T12:03:15.529Z,1039.85
2016-10-17T12:04:15.521Z,1039.89
2016-10-17T12:05:15.512Z,1039.94
2016-10-17T12:06:15.508Z,1039.97
2016-10-17T12:07:15.501Z,1039.97
2016-10-17T12:08:15.494Z,1040
2016-10-17T12:09:15.486Z,1040.02
2016-10-17T12:10:15.478Z,1040.01